This is the latest recevied weather packets stored in our database for station/object F4CYQ-10. If no packets are shown the sender has not sent any weather packets the latest 10 day(s).
| Time | Temp. | Humidity | Pressure | Rain* | Wind** | Luminosity | Snow |
|---|---|---|---|---|---|---|---|
| 1777922101 | 17.78° C | 59% | 1015.5 hPa | - | - | - | - |
| 1777921201 | 17.78° C | 59% | 1015.6 hPa | - | - | - | - |
| 1777920300 | 17.78° C | 58% | 1015.6 hPa | - | - | - | - |
| 1777919399 | -5° C | 100% | 4.8 hPa | - | - | - | - |
| 1777918992 | 18.33° C | 56% | 1015.4 hPa | - | - | - | - |
| 1777918092 | 18.33° C | 57% | 1015.5 hPa | - | - | - | - |
| 1777917191 | 18.89° C | 57% | 1015.4 hPa | - | - | - | - |
| 1777916290 | 18.89° C | 57% | 1015.4 hPa | - | - | - | - |
| 1777916013 | 18.89° C | 57% | 1015.5 hPa | - | - | - | - |
| 1777915112 | 18.33° C | 57% | 1015.3 hPa | - | - | - | - |
| 1777914210 | 18.33° C | 57% | 1015.3 hPa | - | - | - | - |
| 1777913309 | 20° C | 56% | 1015.2 hPa | - | - | - | - |
| 1777913013 | -5° C | 100% | 4.8 hPa | - | - | - | - |
| 1777912880 | 19.44° C | 57% | 1015.1 hPa | - | - | - | - |
| 1777911979 | 18.33° C | 57% | 1015 hPa | - | - | - | - |
| 1777911078 | 18.33° C | 57% | 1015.1 hPa | - | - | - | - |
| 1777910176 | -5° C | 100% | 4.8 hPa | - | - | - | - |
| 1777909976 | 17.22° C | 57% | 1015 hPa | - | - | - | - |
| 1777909075 | 17.22° C | 57% | 1014.9 hPa | - | - | - | - |
| 1777908789 | -5° C | 100% | 4.8 hPa | - | - | - | - |
| 1777908174 | 17.78° C | 57% | 1015.1 hPa | - | - | - | - |
| 1777907273 | -5° C | 100% | 4.8 hPa | - | - | - | - |
| 1777907233 | 18.89° C | 57% | 1015.5 hPa | - | - | - | - |
| 1777906961 | 18.89° C | 55% | 1014.8 hPa | - | - | - | - |
| 1777906060 | 18.33° C | 56% | 1015.4 hPa | - | - | - | - |
* Rain since midnight (hover to see other rain measurements)
** Current wind speed in m/s (hover to see current wind gust speed)